Time;durP1;ratioP1;P1;durP2;ratioP2;P2;SDS_P1;SDS_P2;PMS_P1;PMS_P2;Temp;Humidity;BMP_temperature;BMP_pressure;BME280_temperature;BME280_humidity;BME280_pressure;Samples;Min_cycle;Max_cycle;Signal;HPM_P1;HPM_P2
2022/01/30 00:00:51;;;;;;;0.13;0.13;;;4.10;99.90;;;;;;2098402;28;20196;-67
2022/01/30 00:01:52;;;;;;;0.30;0.30;;;4.10;99.90;;;;;;2098392;28;20174;-67
2022/01/30 00:02:53;;;;;;;0.30;0.30;;;4.10;99.90;;;;;;2098503;28;20195;-67
2022/01/30 00:03:54;;;;;;;0.20;0.20;;;4.20;99.90;;;;;;2098356;28;20179;-67
2022/01/30 00:04:55;;;;;;;0.40;0.35;;;4.10;99.90;;;;;;2098422;28;20256;-67
2022/01/30 00:05:55;;;;;;;0.20;0.20;;;4.10;99.90;;;;;;2098432;28;20667;-68
2022/01/30 00:06:56;;;;;;;0.30;0.30;;;4.20;99.90;;;;;;2098383;28;20274;-67
2022/01/30 00:07:57;;;;;;;0.20;0.20;;;4.10;99.90;;;;;;2098202;28;20178;-67
2022/01/30 00:08:57;;;;;;;0.60;0.50;;;4.10;99.90;;;;;;2097498;28;20641;-68
2022/01/30 00:09:58;;;;;;;0.17;0.17;;;4.10;99.90;;;;;;2097882;28;20183;-67
2022/01/30 00:11:06;;;;;;;0.63;0.30;;;4.00;99.90;;;;;;2097988;28;20671;-67
2022/01/30 00:12:08;;;;;;;2.05;0.95;;;4.00;99.90;;;;;;2098048;28;20197;-67
2022/01/30 00:13:13;;;;;;;0.40;0.40;;;4.00;99.90;;;;;;2097914;28;20191;-67
2022/01/30 00:14:16;;;;;;;0.20;0.20;;;4.00;99.90;;;;;;2097834;28;20236;-67
2022/01/30 00:15:18;;;;;;;0.25;0.25;;;4.00;99.90;;;;;;2097940;28;20189;-67
2022/01/30 00:16:22;;;;;;;0.20;0.20;;;4.00;99.90;;;;;;2097469;28;20180;-67
2022/01/30 00:17:30;;;;;;;0.40;0.40;;;4.00;99.90;;;;;;2097245;28;20223;-67
2022/01/30 00:19:45;;;;;;;0.20;0.20;;;4.00;99.90;;;;;;2097703;28;20303;-67
2022/01/30 00:20:59;;;;;;;0.22;0.22;;;4.00;99.90;;;;;;2098059;28;20588;-67
2022/01/30 00:22:14;;;;;;;0.40;0.40;;;3.90;99.90;;;;;;2097544;28;20168;-67
2022/01/30 00:23:22;;;;;;;0.30;0.30;;;3.90;99.90;;;;;;2097696;28;20167;-67
2022/01/30 00:24:44;;;;;;;0.60;0.50;;;3.90;99.90;;;;;;2097812;28;20538;-67
2022/01/30 00:25:48;;;;;;;0.30;0.30;;;4.00;99.90;;;;;;2097093;28;20642;-67
2022/01/30 00:26:50;;;;;;;0.32;0.32;;;4.10;99.90;;;;;;2097359;28;20214;-67
2022/01/30 00:28:05;;;;;;;0.63;0.40;;;4.10;99.90;;;;;;2097400;28;20174;-68
2022/01/30 00:29:06;;;;;;;0.40;0.40;;;4.00;99.90;;;;;;2097122;28;20187;-67
2022/01/30 00:30:10;;;;;;;0.63;0.52;;;4.00;99.90;;;;;;2097413;28;20211;-67
2022/01/30 00:31:13;;;;;;;0.40;0.40;;;4.00;99.90;;;;;;2097679;28;20230;-67
2022/01/30 00:32:14;;;;;;;0.40;0.40;;;4.00;99.90;;;;;;2097157;28;20183;-67
2022/01/30 00:33:15;;;;;;;0.50;0.50;;;4.10;99.90;;;;;;2097103;28;20660;-66
2022/01/30 00:34:16;;;;;;;0.60;0.60;;;4.10;99.90;;;;;;2097218;28;20701;-66
2022/01/30 00:35:16;;;;;;;1.73;0.70;;;4.20;99.90;;;;;;2088781;28;20188;-67
2022/01/30 00:36:17;;;;;;;0.50;0.50;;;4.20;99.90;;;;;;2088709;28;20252;-67
2022/01/30 00:37:18;;;;;;;0.60;0.60;;;4.20;99.90;;;;;;2097140;28;20179;-67
2022/01/30 00:38:21;;;;;;;0.70;0.70;;;4.10;99.90;;;;;;2098031;28;20661;-67
2022/01/30 00:39:22;;;;;;;0.65;0.65;;;4.00;99.90;;;;;;2096985;28;20204;-67
2022/01/30 00:40:23;;;;;;;0.50;0.50;;;3.90;99.90;;;;;;2097274;28;20187;-68
2022/01/30 00:41:24;;;;;;;0.60;0.60;;;3.90;99.90;;;;;;2097551;28;20187;-67
2022/01/30 00:42:24;;;;;;;0.60;0.60;;;3.90;99.90;;;;;;2097780;28;20182;-66
2022/01/30 00:43:25;;;;;;;0.50;0.50;;;4.00;99.90;;;;;;2097812;28;20183;-67
2022/01/30 00:44:25;;;;;;;0.50;0.50;;;4.00;99.90;;;;;;2097500;28;20175;-67
2022/01/30 00:45:26;;;;;;;0.73;0.50;;;4.00;99.90;;;;;;2097671;28;20206;-67
2022/01/30 00:46:27;;;;;;;0.60;0.60;;;4.00;99.90;;;;;;2097730;28;20257;-68
2022/01/30 00:47:27;;;;;;;0.60;0.60;;;4.10;99.90;;;;;;2097749;28;20182;-67
2022/01/30 00:48:28;;;;;;;0.60;0.60;;;4.10;99.90;;;;;;2097738;28;20172;-67
2022/01/30 00:49:29;;;;;;;0.80;0.77;;;4.00;99.90;;;;;;2097707;28;20225;-67
2022/01/30 00:50:30;;;;;;;1.13;0.70;;;4.10;99.90;;;;;;2097624;28;20189;-66
2022/01/30 00:51:31;;;;;;;0.80;0.80;;;4.10;99.90;;;;;;2097702;28;20422;-66
2022/01/30 00:52:31;;;;;;;0.70;0.70;;;4.20;99.90;;;;;;2097746;28;20175;-67
2022/01/30 00:53:32;;;;;;;0.60;0.60;;;4.20;99.90;;;;;;2097113;28;20986;-67
2022/01/30 00:54:33;;;;;;;0.93;0.80;;;4.10;99.90;;;;;;2088815;28;20188;-67
2022/01/30 00:55:35;;;;;;;1.00;0.63;;;3.90;99.90;;;;;;2097257;28;20640;-67
2022/01/30 00:56:35;;;;;;;0.65;0.65;;;3.90;99.90;;;;;;2097123;28;20213;-67
2022/01/30 00:57:36;;;;;;;1.00;0.63;;;4.00;99.90;;;;;;2097118;28;20687;-66
2022/01/30 00:58:37;;;;;;;0.90;0.70;;;4.00;99.90;;;;;;2097659;28;20191;-67
2022/01/30 00:59:37;;;;;;;0.70;0.70;;;4.00;99.90;;;;;;2097688;28;20204;-67
2022/01/30 01:00:38;;;;;;;0.67;0.67;;;3.90;99.90;;;;;;2097546;28;20665;-67
2022/01/30 01:01:39;;;;;;;0.80;0.60;;;4.00;99.90;;;;;;2097735;28;20175;-66
2022/01/30 01:02:39;;;;;;;0.70;0.70;;;3.90;99.90;;;;;;2097783;28;20213;-67
2022/01/30 01:03:40;;;;;;;0.60;0.50;;;4.00;99.90;;;;;;2097738;28;20201;-66
2022/01/30 01:04:41;;;;;;;0.50;0.50;;;3.90;99.90;;;;;;2097540;28;20175;-66
2022/01/30 01:05:41;;;;;;;0.70;0.70;;;3.90;99.90;;;;;;2097813;28;20175;-67
2022/01/30 01:06:48;;;;;;;0.70;0.57;;;3.90;99.90;;;;;;2096991;28;20187;-67
2022/01/30 01:07:51;;;;;;;1.55;0.68;;;3.90;99.90;;;;;;2061199;28;1028121;-66
2022/01/30 01:09:01;;;;;;;0.70;0.50;;;3.90;99.90;;;;;;2097919;28;20174;-67
2022/01/30 01:10:09;;;;;;;0.75;0.50;;;3.90;99.90;;;;;;2098306;28;20173;-67
2022/01/30 01:11:28;;;;;;;0.60;0.60;;;4.00;99.90;;;;;;2098153;28;20202;-68
2022/01/30 01:12:51;;;;;;;0.70;0.63;;;3.90;99.90;;;;;;2097303;28;20185;-66
2022/01/30 01:14:16;;;;;;;0.98;0.68;;;3.90;99.90;;;;;;2092202;28;20203;-67
2022/01/30 01:24:21;;;;;;;0.50;0.50;;;3.90;99.90;;;;;;2097786;28;20174;-67
2022/01/30 01:25:22;;;;;;;1.17;0.70;;;3.90;99.90;;;;;;2097812;28;20186;-67
2022/01/30 01:26:24;;;;;;;0.50;0.50;;;3.90;99.90;;;;;;2097967;28;20206;-67
2022/01/30 01:27:25;;;;;;;0.73;0.70;;;3.90;99.90;;;;;;2097884;28;20167;-66
2022/01/30 01:28:27;;;;;;;0.70;0.70;;;3.90;99.90;;;;;;2097309;28;20188;-67
2022/01/30 01:29:28;;;;;;;1.05;0.80;;;3.90;99.90;;;;;;2097029;28;20206;-66
2022/01/30 01:30:28;;;;;;;1.23;1.10;;;3.90;99.90;;;;;;2097173;28;20190;-67
2022/01/30 01:31:29;;;;;;;1.10;0.80;;;4.00;99.90;;;;;;2097865;28;20182;-67
2022/01/30 01:32:30;;;;;;;0.67;0.60;;;4.10;99.90;;;;;;2097315;28;20900;-67
2022/01/30 01:33:46;;;;;;;1.43;0.70;;;4.10;99.90;;;;;;2097136;28;20512;-68
2022/01/30 01:34:47;;;;;;;0.82;0.82;;;4.10;99.90;;;;;;2097924;28;20802;-66
2022/01/30 01:35:48;;;;;;;0.93;0.80;;;4.10;99.90;;;;;;2097879;28;20183;-67
2022/01/30 01:36:48;;;;;;;0.57;0.57;;;4.00;99.90;;;;;;2097965;28;20176;-67
2022/01/30 01:37:53;;;;;;;0.63;0.63;;;4.10;99.90;;;;;;2097861;28;20236;-66
2022/01/30 01:38:55;;;;;;;0.80;0.70;;;4.20;99.90;;;;;;2097882;28;20303;-67
2022/01/30 01:39:55;;;;;;;0.80;0.80;;;4.20;99.90;;;;;;2097885;28;20178;-66
2022/01/30 01:40:56;;;;;;;0.70;0.70;;;4.00;99.90;;;;;;2097893;28;20203;-67
2022/01/30 01:41:57;;;;;;;0.70;0.70;;;4.00;99.90;;;;;;2097730;28;20671;-66
2022/01/30 01:43:01;;;;;;;1.23;0.80;;;4.00;99.90;;;;;;2097043;28;20179;-67
2022/01/30 01:44:02;;;;;;;0.77;0.75;;;4.10;99.90;;;;;;2089185;28;20197;-66
2022/01/30 01:45:04;;;;;;;1.30;0.80;;;4.10;99.90;;;;;;2097127;28;20835;-66
2022/01/30 01:46:13;;;;;;;0.70;0.70;;;4.00;99.90;;;;;;2097145;28;20520;-67
2022/01/30 01:47:16;;;;;;;0.70;0.70;;;4.00;99.90;;;;;;2097286;28;20164;-66
2022/01/30 01:48:16;;;;;;;1.33;0.57;;;4.00;99.90;;;;;;2097155;28;20891;-66
2022/01/30 01:49:26;;;;;;;0.80;0.80;;;4.00;99.90;;;;;;2096837;28;20190;-67
2022/01/30 01:50:38;;;;;;;1.23;0.80;;;3.90;99.90;;;;;;2097081;28;20655;-67
2022/01/30 01:51:46;;;;;;;0.68;0.60;;;3.90;99.90;;;;;;2097355;28;20160;-66
2022/01/30 01:52:47;;;;;;;0.68;0.65;;;3.90;99.90;;;;;;2097764;28;20164;-68
2022/01/30 01:53:52;;;;;;;0.50;0.50;;;3.90;99.90;;;;;;2098005;28;20182;-67
2022/01/30 01:54:59;;;;;;;0.50;0.50;;;3.80;99.90;;;;;;2097595;28;20183;-67
2022/01/30 01:55:59;;;;;;;0.60;0.60;;;3.90;99.90;;;;;;2097017;28;20681;-67
2022/01/30 01:57:00;;;;;;;0.77;0.73;;;4.00;99.90;;;;;;2089015;28;20190;-67
2022/01/30 01:58:01;;;;;;;0.60;0.60;;;4.00;99.90;;;;;;2088738;28;20200;-68
2022/01/30 01:59:02;;;;;;;0.80;0.68;;;4.00;99.90;;;;;;2088750;28;20272;-67
2022/01/30 02:00:05;;;;;;;0.50;0.50;;;3.90;99.90;;;;;;2097169;28;20191;-67
2022/01/30 02:01:06;;;;;;;0.65;0.57;;;4.00;99.90;;;;;;2096831;28;20259;-67
2022/01/30 02:02:07;;;;;;;0.45;0.45;;;3.90;99.90;;;;;;2088888;28;20261;-68
2022/01/30 02:03:10;;;;;;;0.88;0.63;;;3.80;99.90;;;;;;2096850;28;20232;-67
2022/01/30 02:04:11;;;;;;;0.50;0.50;;;3.80;99.90;;;;;;2097052;28;20182;-67
2022/01/30 02:05:12;;;;;;;0.50;0.50;;;3.90;99.90;;;;;;2088623;28;20640;-68
2022/01/30 02:06:18;;;;;;;0.52;0.52;;;3.90;99.90;;;;;;2088920;28;20186;-67
2022/01/30 02:08:44;;;;;;;0.40;0.40;;;3.90;99.90;;;;;;2097311;28;20220;-68
2022/01/30 02:09:45;;;;;;;0.43;0.43;;;3.90;99.90;;;;;;2097357;28;20182;-67
2022/01/30 02:10:54;;;;;;;0.40;0.35;;;3.90;99.90;;;;;;2097311;28;20264;-67
2022/01/30 02:11:55;;;;;;;0.73;0.57;;;3.90;99.90;;;;;;2097574;28;20188;-67
2022/01/30 02:13:09;;;;;;;0.30;0.30;;;3.90;99.90;;;;;;2097418;28;20187;-67
2022/01/30 02:26:02;;;;;;;0.45;0.45;;;4.00;99.90;;;;;;2097339;28;20576;-66
2022/01/30 02:27:03;;;;;;;0.35;0.35;;;4.00;99.90;;;;;;2097396;28;20195;-67
2022/01/30 02:28:10;;;;;;;0.40;0.40;;;3.80;99.90;;;;;;2097183;28;20239;-67
2022/01/30 02:29:11;;;;;;;0.45;0.45;;;3.80;99.90;;;;;;2088258;28;20361;-67
2022/01/30 02:30:18;;;;;;;0.50;0.50;;;3.90;99.90;;;;;;2089094;28;20655;-67
2022/01/30 02:31:21;;;;;;;0.50;0.50;;;3.90;99.90;;;;;;2104254;28;20281;-67
2022/01/30 02:32:22;;;;;;;0.40;0.40;;;3.90;99.90;;;;;;2097346;28;20252;-67
2022/01/30 02:33:23;;;;;;;0.52;0.52;;;3.90;99.90;;;;;;2097285;28;20678;-68
2022/01/30 02:34:29;;;;;;;1.37;0.60;;;4.00;99.90;;;;;;2104904;28;20247;-67
2022/01/30 02:35:30;;;;;;;0.85;0.60;;;4.00;99.90;;;;;;2096654;28;20881;-67
2022/01/30 02:36:31;;;;;;;0.65;0.60;;;4.00;99.90;;;;;;2096657;28;20274;-68
2022/01/30 02:37:32;;;;;;;0.70;0.50;;;4.00;99.90;;;;;;2097281;28;20187;-67
2022/01/30 02:38:33;;;;;;;0.70;0.50;;;4.00;99.90;;;;;;2097177;28;20683;-68
2022/01/30 02:39:33;;;;;;;0.50;0.40;;;4.00;99.90;;;;;;2097015;28;20198;-67
2022/01/30 02:40:39;;;;;;;0.50;0.50;;;4.00;99.90;;;;;;2097194;28;20655;-67
2022/01/30 02:41:40;;;;;;;0.50;0.50;;;4.00;99.90;;;;;;2097352;28;20163;-67
2022/01/30 02:42:47;;;;;;;0.40;0.40;;;4.00;99.90;;;;;;2097433;28;20187;-67
2022/01/30 02:43:58;;;;;;;0.50;0.50;;;4.00;99.90;;;;;;2097300;28;20166;-67
2022/01/30 02:45:03;;;;;;;0.40;0.40;;;4.00;99.90;;;;;;2097246;28;20175;-67
2022/01/30 02:46:19;;;;;;;1.75;0.45;;;4.00;99.90;;;;;;2096673;28;20190;-67
2022/01/30 02:49:11;;;;;;;0.68;0.60;;;4.00;99.90;;;;;;2097245;28;20233;-68
2022/01/30 02:50:20;;;;;;;0.70;0.70;;;4.00;99.90;;;;;;2096603;28;20218;-66
2022/01/30 02:51:22;;;;;;;0.50;0.50;;;4.00;99.90;;;;;;2096932;28;20757;-68
2022/01/30 02:52:23;;;;;;;0.50;0.50;;;4.00;99.90;;;;;;2096379;28;20183;-68
2022/01/30 02:53:30;;;;;;;0.60;0.60;;;4.00;99.90;;;;;;2096563;28;20175;-68
2022/01/30 02:54:32;;;;;;;0.60;0.60;;;4.00;99.90;;;;;;2097095;28;20156;-67
2022/01/30 02:55:32;;;;;;;1.20;1.10;;;3.90;99.90;;;;;;2097217;28;20200;-67
2022/01/30 02:56:35;;;;;;;0.63;0.63;;;3.90;99.90;;;;;;2097139;28;20619;-67
2022/01/30 02:57:36;;;;;;;0.90;0.70;;;3.90;99.90;;;;;;2097069;28;20183;-68
2022/01/30 02:58:36;;;;;;;1.97;0.80;;;3.90;99.90;;;;;;2097169;28;20211;-67
2022/01/30 02:59:38;;;;;;;1.20;0.80;;;3.90;99.90;;;;;;2096349;28;20210;-67
2022/01/30 03:00:39;;;;;;;0.60;0.60;;;4.00;99.90;;;;;;2096552;28;20175;-67
2022/01/30 03:01:40;;;;;;;0.73;0.60;;;4.00;99.90;;;;;;2097215;28;20183;-67
2022/01/30 03:02:41;;;;;;;0.50;0.50;;;3.90;99.90;;;;;;2097030;28;20251;-67
2022/01/30 03:03:41;;;;;;;0.50;0.50;;;4.00;99.90;;;;;;2096449;28;20189;-67
2022/01/30 03:04:42;;;;;;;0.50;0.50;;;4.00;99.90;;;;;;2096390;28;20237;-67
2022/01/30 03:05:43;;;;;;;0.70;0.70;;;4.00;99.90;;;;;;2097225;28;20854;-67
2022/01/30 03:06:45;;;;;;;0.60;0.60;;;4.10;99.90;;;;;;2097218;28;20182;-68
2022/01/30 03:07:46;;;;;;;0.60;0.57;;;4.10;99.90;;;;;;2096439;28;20183;-68
2022/01/30 03:08:46;;;;;;;0.70;0.70;;;4.10;99.90;;;;;;2096414;28;20684;-67
2022/01/30 03:09:47;;;;;;;0.40;0.40;;;4.10;99.90;;;;;;2096907;28;20175;-67
2022/01/30 03:10:47;;;;;;;0.40;0.40;;;4.00;99.90;;;;;;2097069;28;20264;-67
2022/01/30 03:11:49;;;;;;;0.50;0.50;;;4.00;99.90;;;;;;2097138;28;20183;-67
2022/01/30 03:12:49;;;;;;;0.60;0.60;;;3.90;99.90;;;;;;2097144;28;20567;-67
2022/01/30 03:13:50;;;;;;;0.50;0.50;;;4.00;99.90;;;;;;2097004;28;20190;-67
2022/01/30 03:14:51;;;;;;;0.60;0.53;;;4.00;99.90;;;;;;2097003;28;20180;-66
2022/01/30 03:15:51;;;;;;;0.77;0.50;;;4.00;99.90;;;;;;2096546;28;20190;-67
2022/01/30 03:16:53;;;;;;;0.50;0.50;;;4.00;99.90;;;;;;2096578;28;20671;-67
2022/01/30 03:17:54;;;;;;;0.75;0.40;;;4.00;99.90;;;;;;2088158;28;20211;-68
2022/01/30 03:18:55;;;;;;;0.50;0.50;;;4.00;99.90;;;;;;2088124;28;20187;-68
2022/01/30 03:19:55;;;;;;;0.50;0.50;;;4.10;99.90;;;;;;2097184;28;20183;-68
2022/01/30 03:20:56;;;;;;;0.53;0.53;;;4.10;99.90;;;;;;2096488;28;20207;-68
2022/01/30 03:21:57;;;;;;;0.47;0.47;;;4.10;99.90;;;;;;2096518;28;20667;-67
2022/01/30 03:22:59;;;;;;;2.93;0.70;;;4.10;99.90;;;;;;2097132;28;20175;-67
2022/01/30 03:23:59;;;;;;;0.43;0.40;;;4.10;99.90;;;;;;2096453;28;20270;-67
2022/01/30 03:25:00;;;;;;;0.77;0.60;;;4.10;99.90;;;;;;2096308;28;20192;-67
2022/01/30 03:26:01;;;;;;;0.40;0.40;;;4.00;99.90;;;;;;2097032;28;20708;-67
2022/01/30 03:27:06;;;;;;;0.53;0.53;;;4.00;99.90;;;;;;2097099;28;20656;-67
2022/01/30 03:28:07;;;;;;;0.60;0.50;;;4.10;99.90;;;;;;2097133;28;20156;-67
2022/01/30 03:29:09;;;;;;;0.43;0.40;;;4.10;99.90;;;;;;2096261;28;20180;-67
2022/01/30 03:30:14;;;;;;;0.73;0.50;;;4.10;99.90;;;;;;2096433;28;20187;-67
2022/01/30 03:31:17;;;;;;;0.85;0.60;;;4.20;99.90;;;;;;2097276;28;20199;-68
2022/01/30 03:32:18;;;;;;;0.50;0.50;;;4.20;99.90;;;;;;2097137;28;20255;-67
2022/01/30 03:33:19;;;;;;;0.40;0.40;;;4.20;99.90;;;;;;2097157;28;20241;-67
2022/01/30 03:34:20;;;;;;;0.70;0.60;;;4.20;99.90;;;;;;2104554;28;20174;-68
2022/01/30 03:35:21;;;;;;;0.60;0.60;;;4.10;99.90;;;;;;2104654;28;20661;-67
2022/01/30 03:36:22;;;;;;;0.50;0.50;;;4.20;99.90;;;;;;2096390;28;20351;-68
2022/01/30 03:37:22;;;;;;;1.10;0.50;;;4.00;99.90;;;;;;2096390;28;20228;-67
2022/01/30 03:38:26;;;;;;;0.50;0.50;;;4.00;99.90;;;;;;2097001;28;20171;-67
2022/01/30 03:39:27;;;;;;;0.65;0.65;;;4.00;99.90;;;;;;2096888;28;20675;-68
2022/01/30 03:40:28;;;;;;;0.45;0.45;;;4.10;99.90;;;;;;2096868;28;20553;-68
2022/01/30 03:41:28;;;;;;;1.13;0.60;;;4.10;99.90;;;;;;2096701;28;20175;-67
2022/01/30 03:42:29;;;;;;;1.47;0.60;;;4.20;99.90;;;;;;2096403;28;20282;-67
2022/01/30 03:43:29;;;;;;;1.70;0.60;;;4.20;99.90;;;;;;2097096;28;20647;-68
2022/01/30 03:44:30;;;;;;;0.50;0.50;;;4.20;99.90;;;;;;2096906;28;20607;-67
2022/01/30 03:45:31;;;;;;;0.73;0.60;;;4.20;99.90;;;;;;2097094;28;20172;-67
2022/01/30 03:46:32;;;;;;;0.40;0.40;;;4.20;99.90;;;;;;2096294;28;20194;-67
2022/01/30 03:47:32;;;;;;;0.50;0.50;;;4.20;99.90;;;;;;2096440;28;20276;-67
2022/01/30 03:48:33;;;;;;;0.50;0.50;;;4.30;99.90;;;;;;2097040;28;20179;-67
2022/01/30 03:49:35;;;;;;;0.43;0.40;;;4.20;99.90;;;;;;2096343;28;20183;-68
2022/01/30 03:50:36;;;;;;;0.40;0.38;;;4.20;99.90;;;;;;2096285;28;20186;-67
2022/01/30 03:51:37;;;;;;;1.02;0.50;;;4.10;99.90;;;;;;2097596;28;20187;-67
2022/01/30 03:52:37;;;;;;;0.73;0.40;;;4.10;99.90;;;;;;2098603;28;20566;-67
2022/01/30 03:53:41;;;;;;;0.37;0.37;;;4.10;99.90;;;;;;2098562;28;20289;-67
2022/01/30 03:54:42;;;;;;;0.35;0.35;;;4.20;99.90;;;;;;2098038;28;20191;-67
2022/01/30 03:55:42;;;;;;;0.90;0.50;;;4.20;99.90;;;;;;2097656;28;20197;-68
2022/01/30 03:56:43;;;;;;;0.50;0.50;;;4.20;99.90;;;;;;2097685;28;20762;-67
2022/01/30 03:57:44;;;;;;;0.40;0.40;;;4.20;99.90;;;;;;2098452;28;20712;-67
2022/01/30 03:58:44;;;;;;;0.40;0.40;;;4.10;99.90;;;;;;2098521;28;20554;-67
2022/01/30 03:59:45;;;;;;;0.30;0.30;;;4.10;99.90;;;;;;2097647;28;20337;-67
2022/01/30 04:00:46;;;;;;;0.43;0.30;;;4.10;99.90;;;;;;2097808;28;20262;-66
2022/01/30 04:01:46;;;;;;;2.30;0.33;;;4.10;99.90;;;;;;2097855;28;20182;-67
2022/01/30 04:02:47;;;;;;;0.30;0.30;;;4.10;99.90;;;;;;2097804;28;20228;-68
2022/01/30 04:03:48;;;;;;;1.00;0.40;;;4.10;99.90;;;;;;2098479;28;20181;-67
2022/01/30 04:04:48;;;;;;;0.40;0.40;;;4.10;99.90;;;;;;2098344;28;20170;-67
2022/01/30 04:05:49;;;;;;;1.20;0.37;;;4.10;99.90;;;;;;2098544;28;20776;-68
2022/01/30 04:06:50;;;;;;;0.63;0.50;;;4.20;99.90;;;;;;2098005;28;20180;-67
2022/01/30 04:07:51;;;;;;;0.60;0.47;;;4.20;99.90;;;;;;2081051;28;20219;-67
2022/01/30 04:08:52;;;;;;;0.50;0.50;;;4.30;99.90;;;;;;2089633;28;20180;-68
2022/01/30 04:09:53;;;;;;;0.40;0.40;;;4.20;99.90;;;;;;2098490;28;20197;-67
2022/01/30 04:10:54;;;;;;;0.30;0.30;;;4.20;99.90;;;;;;2098110;28;20256;-68
2022/01/30 04:11:55;;;;;;;0.60;0.60;;;4.20;99.90;;;;;;2098559;28;20550;-67
2022/01/30 04:12:56;;;;;;;0.40;0.40;;;4.20;99.90;;;;;;2097813;28;20617;-68
2022/01/30 04:13:57;;;;;;;0.82;0.52;;;4.10;99.90;;;;;;2097870;28;20428;-66
2022/01/30 04:14:58;;;;;;;0.50;0.50;;;4.10;99.90;;;;;;2098326;28;20194;-67
2022/01/30 04:15:59;;;;;;;1.00;0.50;;;4.10;99.90;;;;;;2097460;28;20300;-67
2022/01/30 04:17:00;;;;;;;0.90;0.70;;;4.00;99.90;;;;;;2089499;28;20589;-67
2022/01/30 04:18:02;;;;;;;0.60;0.60;;;4.00;99.90;;;;;;2098021;28;20199;-67
2022/01/30 04:19:04;;;;;;;0.60;0.50;;;4.00;99.90;;;;;;2097410;28;20187;-67
2022/01/30 04:20:06;;;;;;;0.63;0.60;;;4.00;99.90;;;;;;2097862;28;20184;-67
2022/01/30 04:21:06;;;;;;;0.55;0.55;;;4.00;99.90;;;;;;2097649;28;20201;-67
2022/01/30 04:22:07;;;;;;;2.00;0.57;;;4.00;99.90;;;;;;2098510;28;20182;-67
2022/01/30 04:23:08;;;;;;;0.60;0.60;;;4.00;99.90;;;;;;2098305;28;20224;-67
2022/01/30 04:24:08;;;;;;;0.60;0.50;;;4.00;99.90;;;;;;2098293;28;20186;-67
2022/01/30 04:25:09;;;;;;;0.50;0.50;;;4.10;99.90;;;;;;2097961;28;20266;-67
2022/01/30 04:26:10;;;;;;;0.50;0.50;;;4.10;99.90;;;;;;2098365;28;20262;-67
2022/01/30 04:27:11;;;;;;;0.40;0.40;;;4.10;99.90;;;;;;2098334;28;20193;-66
2022/01/30 04:28:12;;;;;;;1.03;0.57;;;4.10;99.90;;;;;;2098328;28;20179;-67
2022/01/30 04:29:13;;;;;;;0.50;0.50;;;4.00;99.90;;;;;;2098142;28;20183;-66
2022/01/30 04:30:14;;;;;;;0.50;0.50;;;4.00;99.90;;;;;;2105971;28;20197;-68
2022/01/30 04:31:15;;;;;;;0.43;0.43;;;4.10;99.90;;;;;;2105776;28;20514;-67
2022/01/30 04:32:17;;;;;;;0.40;0.40;;;4.10;99.90;;;;;;2097631;28;20282;-67
2022/01/30 04:33:18;;;;;;;0.50;0.50;;;4.00;99.90;;;;;;2097503;28;20178;-67
2022/01/30 04:34:20;;;;;;;0.77;0.40;;;4.00;99.90;;;;;;2098098;28;20182;-68
2022/01/30 04:35:25;;;;;;;0.45;0.40;;;4.10;99.90;;;;;;2097460;28;20244;-67
2022/01/30 04:36:31;;;;;;;1.13;0.52;;;4.10;99.90;;;;;;2097793;28;20166;-68
2022/01/30 04:37:50;;;;;;;0.40;0.40;;;4.10;99.90;;;;;;2097676;28;20230;-67
2022/01/30 04:41:38;;;;;;;0.40;0.40;;;4.00;99.90;;;;;;2097824;28;20698;-67
2022/01/30 04:52:18;;;;;;;0.50;0.47;;;3.90;99.90;;;;;;2098107;28;20170;-67
2022/01/30 04:53:35;;;;;;;0.98;0.60;;;3.90;99.90;;;;;;2105755;28;20166;-67
2022/01/30 04:59:40;;;;;;;2.30;0.50;;;3.80;99.90;;;;;;2097529;28;20210;-67
2022/01/30 05:00:53;;;;;;;1.92;0.50;;;3.90;99.90;;;;;;2097892;28;20269;-68
2022/01/30 05:02:05;;;;;;;0.40;0.40;;;3.90;99.90;;;;;;2097944;28;20719;-67
2022/01/30 05:04:26;;;;;;;1.03;0.87;;;3.90;99.90;;;;;;2098001;28;20214;-67
2022/01/30 05:07:41;;;;;;;0.40;0.40;;;3.80;99.90;;;;;;2097513;28;20174;-67
2022/01/30 05:08:11;;;;;;;0.30;0.30;;;3.80;99.90;;;;;;2088553;28;20210;-67
2022/01/30 05:09:12;;;;;;;0.35;0.35;;;3.70;99.90;;;;;;2097796;28;20162;-67
2022/01/30 05:10:12;;;;;;;0.40;0.40;;;3.60;99.90;;;;;;2097382;28;20186;-67
2022/01/30 05:11:13;;;;;;;0.20;0.20;;;3.60;99.90;;;;;;2097165;28;20194;-67
2022/01/30 05:12:15;;;;;;;0.70;0.50;;;3.60;99.90;;;;;;2097888;28;20640;-68
2022/01/30 05:13:20;;;;;;;0.22;0.22;;;3.60;99.90;;;;;;2097188;28;20174;-68
2022/01/30 05:14:24;;;;;;;0.30;0.30;;;3.60;99.90;;;;;;2097049;28;20257;-67
2022/01/30 05:15:28;;;;;;;0.63;0.40;;;3.60;99.90;;;;;;2097815;28;20174;-67
2022/01/30 05:16:31;;;;;;;1.35;0.35;;;3.60;99.90;;;;;;2097176;28;20660;-67
2022/01/30 05:17:32;;;;;;;0.30;0.30;;;3.70;99.90;;;;;;2097084;28;20194;-67
2022/01/30 05:18:33;;;;;;;0.23;0.23;;;3.60;99.90;;;;;;2098020;28;20945;-67
2022/01/30 05:19:34;;;;;;;0.30;0.30;;;3.70;99.90;;;;;;2096959;28;20235;-67
2022/01/30 05:20:35;;;;;;;0.40;0.40;;;3.70;99.90;;;;;;2097131;28;20658;-68
2022/01/30 05:21:36;;;;;;;0.40;0.35;;;3.70;99.90;;;;;;2097111;28;20229;-68
2022/01/30 05:22:37;;;;;;;0.70;0.33;;;3.70;99.90;;;;;;2097849;28;20228;-67
2022/01/30 05:23:38;;;;;;;1.48;0.30;;;3.70;99.90;;;;;;2097022;28;20432;-67
2022/01/30 05:24:39;;;;;;;0.30;0.30;;;3.70;99.90;;;;;;2096916;28;20179;-67
2022/01/30 05:25:40;;;;;;;0.40;0.40;;;3.70;99.90;;;;;;2097894;28;20178;-67
2022/01/30 05:26:43;;;;;;;0.20;0.20;;;3.70;99.90;;;;;;2105479;28;20518;-67
2022/01/30 05:27:44;;;;;;;0.60;0.20;;;3.70;99.90;;;;;;2105175;28;20675;-67
2022/01/30 05:28:45;;;;;;;0.20;0.20;;;3.60;99.90;;;;;;2097113;28;20187;-67
2022/01/30 05:29:46;;;;;;;0.30;0.30;;;3.60;99.90;;;;;;2096999;28;20189;-68
2022/01/30 05:30:47;;;;;;;0.20;0.20;;;3.50;99.90;;;;;;2097660;28;20211;-67
2022/01/30 05:31:48;;;;;;;0.20;0.20;;;3.60;99.90;;;;;;2097042;28;20200;-68
2022/01/30 05:32:49;;;;;;;0.33;0.33;;;3.50;99.90;;;;;;2097131;28;20207;-67
2022/01/30 05:33:50;;;;;;;0.17;0.17;;;3.50;99.90;;;;;;2097652;28;20688;-67
2022/01/30 05:34:51;;;;;;;0.30;0.30;;;3.50;99.90;;;;;;2097563;28;20214;-68
2022/01/30 05:35:52;;;;;;;0.20;0.20;;;3.60;99.90;;;;;;2097669;28;20197;-68
2022/01/30 05:36:55;;;;;;;0.60;0.40;;;3.60;99.90;;;;;;2097709;28;20236;-67
2022/01/30 05:37:56;;;;;;;0.40;0.40;;;3.60;99.90;;;;;;2096992;28;20743;-68
2022/01/30 05:38:58;;;;;;;0.27;0.27;;;3.60;99.90;;;;;;2096835;28;20210;-67
2022/01/30 05:39:59;;;;;;;0.30;0.30;;;3.60;99.90;;;;;;2097904;28;20541;-67
2022/01/30 05:41:00;;;;;;;0.40;0.40;;;3.60;99.90;;;;;;2097868;28;20210;-67
2022/01/30 05:42:01;;;;;;;0.33;0.33;;;3.60;99.90;;;;;;2097123;28;20229;-67
2022/01/30 05:43:04;;;;;;;0.30;0.30;;;3.60;99.90;;;;;;2097198;28;20183;-67
2022/01/30 05:44:11;;;;;;;0.40;0.40;;;3.50;99.90;;;;;;2097801;28;20186;-67
2022/01/30 05:46:29;;;;;;;0.40;0.40;;;3.60;99.90;;;;;;2097743;28;20181;-68
2022/01/30 05:47:38;;;;;;;0.30;0.30;;;3.60;99.90;;;;;;2105458;28;20180;-68
2022/01/30 05:48:39;;;;;;;6.60;0.50;;;3.60;99.90;;;;;;2091987;28;20184;-67
2022/01/30 05:49:40;;;;;;;0.40;0.40;;;3.50;99.90;;;;;;2097083;28;20619;-67
2022/01/30 05:50:43;;;;;;;0.45;0.45;;;3.50;99.90;;;;;;2097054;28;20659;-67
2022/01/30 05:51:44;;;;;;;0.30;0.30;;;3.40;99.90;;;;;;2097151;28;20253;-67
2022/01/30 05:52:44;;;;;;;0.60;0.40;;;3.50;99.90;;;;;;2097542;28;20668;-69
2022/01/30 05:53:45;;;;;;;0.63;0.50;;;3.50;99.90;;;;;;2097723;28;20728;-67
2022/01/30 05:54:46;;;;;;;0.60;0.50;;;3.40;99.90;;;;;;2097446;28;20725;-67
2022/01/30 05:55:46;;;;;;;0.50;0.50;;;3.50;99.90;;;;;;2097586;28;20182;-67
2022/01/30 05:56:47;;;;;;;0.40;0.40;;;3.50;99.90;;;;;;2097669;28;20189;-67
2022/01/30 05:57:48;;;;;;;0.60;0.60;;;3.50;99.90;;;;;;2097627;28;20187;-67
2022/01/30 05:58:48;;;;;;;0.80;0.50;;;3.60;99.90;;;;;;2097507;28;20222;-69
2022/01/30 05:59:49;;;;;;;0.30;0.30;;;3.60;99.90;;;;;;2097726;28;20211;-67
2022/01/30 06:00:50;;;;;;;0.43;0.43;;;3.70;99.90;;;;;;2097727;28;20268;-67
2022/01/30 06:01:50;;;;;;;0.40;0.40;;;3.80;99.90;;;;;;2097719;28;20183;-68
2022/01/30 06:02:51;;;;;;;0.50;0.50;;;3.70;99.90;;;;;;2097575;28;20178;-67
2022/01/30 06:03:52;;;;;;;0.40;0.40;;;3.70;99.90;;;;;;2097585;28;20206;-67
2022/01/30 06:04:52;;;;;;;0.40;0.40;;;3.70;99.90;;;;;;2097341;28;20252;-67
2022/01/30 06:05:53;;;;;;;0.47;0.47;;;3.70;99.90;;;;;;2097466;28;20187;-68
2022/01/30 06:06:55;;;;;;;0.50;0.50;;;3.80;99.90;;;;;;2097846;28;20183;-67
2022/01/30 06:07:57;;;;;;;0.52;0.40;;;3.70;99.90;;;;;;2096555;28;20220;-68
2022/01/30 06:10:23;;;;;;;0.40;0.40;;;3.70;99.90;;;;;;2097313;28;20841;-67
2022/01/30 06:11:24;;;;;;;0.80;0.40;;;3.80;99.90;;;;;;2095618;28;20206;-67
2022/01/30 06:12:24;;;;;;;0.40;0.40;;;3.80;99.90;;;;;;2097450;28;20271;-67
2022/01/30 06:13:25;;;;;;;0.30;0.30;;;3.80;99.90;;;;;;2097370;28;20262;-67
2022/01/30 06:14:26;;;;;;;0.87;0.43;;;3.80;99.90;;;;;;2096806;28;20175;-67
2022/01/30 06:15:27;;;;;;;0.57;0.57;;;3.80;99.90;;;;;;2096664;28;20179;-67
2022/01/30 06:16:27;;;;;;;0.50;0.50;;;3.80;99.90;;;;;;2096578;28;20239;-67
2022/01/30 06:17:28;;;;;;;0.47;0.30;;;3.70;99.90;;;;;;2097416;28;20357;-67
2022/01/30 06:18:29;;;;;;;0.33;0.30;;;3.70;99.90;;;;;;2097384;28;20182;-67